createdAt,value
2017-05-09T00:01:29.732Z,8.27
2017-05-09T00:03:56.115Z,8.21
2017-05-09T00:06:22.526Z,8.41
2017-05-09T00:09:05.067Z,8.25
2017-05-09T00:11:31.632Z,8.57
2017-05-09T00:13:57.992Z,8.52
2017-05-09T00:16:24.355Z,8.40
2017-05-09T00:18:50.997Z,8.40
2017-05-09T00:21:19.041Z,8.21
2017-05-09T00:23:45.531Z,8.25
2017-05-09T00:26:11.893Z,8.43
2017-05-09T00:28:38.250Z,8.36
2017-05-09T00:31:04.606Z,7.87
2017-05-09T00:33:30.943Z,8.23
2017-05-09T00:35:57.277Z,7.82
2017-05-09T00:38:23.612Z,8.05
2017-05-09T00:40:49.984Z,7.88
2017-05-09T00:43:16.354Z,7.95
2017-05-09T00:45:42.781Z,8.01
2017-05-09T00:48:09.111Z,8.25
2017-05-09T00:50:35.468Z,7.62
2017-05-09T00:53:01.798Z,7.80
2017-05-09T00:55:28.143Z,7.76
2017-05-09T00:57:54.517Z,7.83
2017-05-09T01:00:20.889Z,7.30
2017-05-09T01:02:47.245Z,7.36
2017-05-09T01:05:13.604Z,7.25
2017-05-09T01:07:39.947Z,7.27
2017-05-09T01:10:06.286Z,6.74
2017-05-09T01:12:32.665Z,6.78
2017-05-09T01:14:59.021Z,6.62
2017-05-09T01:17:25.397Z,7.19
2017-05-09T01:19:51.760Z,6.93
2017-05-09T01:22:18.103Z,6.74
2017-05-09T01:24:44.460Z,7.06
2017-05-09T01:27:10.805Z,6.49
2017-05-09T01:29:37.161Z,6.47
2017-05-09T01:32:03.542Z,5.79
2017-05-09T01:34:29.965Z,5.90
2017-05-09T01:36:56.355Z,6.16
2017-05-09T01:39:22.703Z,6.04
2017-05-09T01:41:49.091Z,7.23
2017-05-09T01:44:15.518Z,7.17
2017-05-09T01:46:41.874Z,6.57
2017-05-09T01:49:08.218Z,6.42
2017-05-09T01:51:34.602Z,6.42
2017-05-09T01:54:00.938Z,6.02
2017-05-09T01:56:27.282Z,5.88
2017-05-09T01:58:53.620Z,7.36
2017-05-09T02:01:19.967Z,7.55
2017-05-09T02:03:46.310Z,7.38
2017-05-09T02:06:12.695Z,7.79
2017-05-09T02:08:39.042Z,7.29
2017-05-09T02:11:05.434Z,6.41
2017-05-09T02:13:31.789Z,5.53
2017-05-09T02:15:58.126Z,5.62
2017-05-09T02:18:24.513Z,5.45
2017-05-09T02:20:50.916Z,5.68
2017-05-09T02:23:17.273Z,5.47
2017-05-09T02:25:43.595Z,4.75
2017-05-09T02:28:09.947Z,4.89
2017-05-09T02:30:36.306Z,5.72
2017-05-09T02:33:02.675Z,6.71
2017-05-09T02:35:29.041Z,6.81
2017-05-09T02:37:55.412Z,6.54
2017-05-09T02:40:21.766Z,5.38
2017-05-09T02:42:48.104Z,5.18
2017-05-09T02:45:14.474Z,5.45
2017-05-09T02:47:40.818Z,5.87
2017-05-09T02:50:07.166Z,5.19
2017-05-09T02:52:33.495Z,5.76
2017-05-09T02:54:59.850Z,5.45
2017-05-09T02:57:26.207Z,5.65
2017-05-09T02:59:52.581Z,5.61
2017-05-09T03:02:18.940Z,4.54
2017-05-09T03:04:45.317Z,5.14
2017-05-09T03:07:11.651Z,4.51
2017-05-09T03:09:37.997Z,4.79
2017-05-09T03:12:04.654Z,4.79
2017-05-09T03:14:31.007Z,4.90
2017-05-09T03:16:57.378Z,3.99
2017-05-09T03:19:23.724Z,4.68
2017-05-09T03:21:50.069Z,4.21
2017-05-09T03:24:16.419Z,4.83
2017-05-09T03:26:42.831Z,5.69
2017-05-09T03:29:09.168Z,4.96
2017-05-09T03:31:35.516Z,5.57
2017-05-09T03:34:01.891Z,5.96
2017-05-09T03:36:28.226Z,4.24
2017-05-09T03:38:54.589Z,4.23
2017-05-09T03:41:20.925Z,3.93
2017-05-09T03:43:47.363Z,4.03
2017-05-09T03:46:13.662Z,3.38
2017-05-09T03:48:40.059Z,3.91
2017-05-09T03:51:06.433Z,3.98
2017-05-09T03:53:32.842Z,4.53
2017-05-09T03:55:59.170Z,4.83
2017-05-09T03:58:25.514Z,4.40
2017-05-09T04:00:51.876Z,3.94
2017-05-09T04:03:18.280Z,3.81
2017-05-09T04:05:44.684Z,5.34
2017-05-09T04:08:11.052Z,5.82
2017-05-09T04:10:37.423Z,5.59
2017-05-09T04:13:03.793Z,3.49
2017-05-09T04:15:30.168Z,4.07
2017-05-09T04:17:56.532Z,4.83
2017-05-09T04:23:29.252Z,3.55
2017-05-09T04:25:55.570Z,4.98
2017-05-09T04:28:21.909Z,5.59
2017-05-09T04:30:48.268Z,5.74
2017-05-09T04:33:14.588Z,5.46
2017-05-09T04:35:40.906Z,4.74
2017-05-09T04:38:07.266Z,4.16
2017-05-09T04:40:33.673Z,3.68
2017-05-09T04:43:00.089Z,4.90
2017-05-09T04:45:26.441Z,4.18
2017-05-09T04:47:52.813Z,4.07
2017-05-09T04:50:19.214Z,4.14
2017-05-09T04:52:45.586Z,4.51
2017-05-09T04:55:11.922Z,5.08
2017-05-09T04:57:38.271Z,5.92
2017-05-09T05:00:04.703Z,6.46
2017-05-09T05:02:31.055Z,6.38
2017-05-09T05:04:57.393Z,5.32
2017-05-09T05:07:23.752Z,4.39
2017-05-09T05:09:50.108Z,4.57
2017-05-09T05:12:16.470Z,5.93
2017-05-09T05:14:42.840Z,6.33
2017-05-09T05:17:09.197Z,5.56
2017-05-09T05:19:35.587Z,5.02
2017-05-09T05:22:01.942Z,5.17
2017-05-09T05:24:28.279Z,5.46
2017-05-09T05:26:55.563Z,5.88
2017-05-09T05:29:21.910Z,5.59
2017-05-09T05:31:48.290Z,6.33
2017-05-09T05:34:14.747Z,6.60
2017-05-09T05:36:41.089Z,6.73
2017-05-09T05:39:07.443Z,6.82
2017-05-09T05:41:33.787Z,6.72
2017-05-09T05:44:00.331Z,6.86
2017-05-09T05:46:26.699Z,6.83
2017-05-09T05:48:53.048Z,5.78
2017-05-09T05:51:20.221Z,5.86
2017-05-09T05:53:47.108Z,5.67
2017-05-09T05:56:13.469Z,6.31
2017-05-09T05:58:39.898Z,6.96
2017-05-09T06:01:06.277Z,5.77
2017-05-09T06:03:32.636Z,6.38
2017-05-09T06:05:58.986Z,6.92
2017-05-09T06:08:25.457Z,6.16
2017-05-09T06:10:51.797Z,5.91
2017-05-09T06:13:18.137Z,6.15
2017-05-09T06:15:44.499Z,6.02
2017-05-09T06:18:10.863Z,5.97
2017-05-09T06:20:37.209Z,6.06
2017-05-09T06:23:03.563Z,6.02
2017-05-09T06:25:29.933Z,6.36
2017-05-09T06:27:56.315Z,6.42
2017-05-09T06:30:22.669Z,6.22
2017-05-09T06:32:49.327Z,6.28
2017-05-09T06:35:15.690Z,6.48
2017-05-09T06:37:42.061Z,6.39
2017-05-09T06:40:08.407Z,6.40
2017-05-09T06:42:34.776Z,6.96
2017-05-09T06:45:01.147Z,6.84
2017-05-09T06:47:27.499Z,6.87
2017-05-09T06:49:54.649Z,7.05
2017-05-09T06:52:21.910Z,7.18
2017-05-09T06:54:48.287Z,7.10
2017-05-09T06:57:14.755Z,7.14
2017-05-09T06:59:41.116Z,7.75
2017-05-09T07:02:07.613Z,7.48
2017-05-09T07:04:33.971Z,7.36
2017-05-09T07:07:00.334Z,7.30
2017-05-09T07:09:26.804Z,7.15
2017-05-09T07:11:53.285Z,7.91
2017-05-09T07:14:19.665Z,8.06
2017-05-09T07:16:46.498Z,7.58
2017-05-09T07:19:13.913Z,7.81
2017-05-09T07:21:41.266Z,7.52
2017-05-09T07:24:07.686Z,8.03
2017-05-09T07:26:34.031Z,8.29
2017-05-09T07:29:00.426Z,8.20
2017-05-09T07:31:26.818Z,8.17
2017-05-09T07:33:53.256Z,7.95
2017-05-09T07:36:19.666Z,7.92
2017-05-09T07:38:46.056Z,8.01
2017-05-09T07:41:12.400Z,8.58
2017-05-09T07:43:38.786Z,8.21
2017-05-09T07:46:05.135Z,8.22
2017-05-09T07:51:03.334Z,8.58
2017-05-09T07:53:29.674Z,9.16
2017-05-09T07:58:27.043Z,10.30
2017-05-09T08:00:53.406Z,9.79
2017-05-09T08:03:19.744Z,9.38
2017-05-09T08:05:46.097Z,9.49
2017-05-09T08:08:12.463Z,9.08
2017-05-09T08:10:38.841Z,9.38
2017-05-09T08:13:05.343Z,10.61
2017-05-09T08:15:31.675Z,9.87
2017-05-09T08:17:58.011Z,10.31
2017-05-09T08:20:24.337Z,9.87
2017-05-09T08:22:50.690Z,10.72
2017-05-09T08:25:17.050Z,10.57
2017-05-09T08:27:44.175Z,10.05
2017-05-09T08:30:10.518Z,9.88
2017-05-09T08:32:36.874Z,10.24
2017-05-09T08:35:03.233Z,10.77
2017-05-09T08:37:29.597Z,11.11
2017-05-09T08:39:55.940Z,10.39
2017-05-09T08:42:22.267Z,11.05
2017-05-09T08:44:48.737Z,10.46
2017-05-09T08:47:15.097Z,10.25
2017-05-09T08:49:41.466Z,10.91
2017-05-09T08:52:07.787Z,10.89
2017-05-09T08:54:34.153Z,10.64
2017-05-09T08:57:00.571Z,10.73
2017-05-09T08:59:26.927Z,10.57
2017-05-09T09:01:53.295Z,11.19
2017-05-09T09:04:20.588Z,11.31
2017-05-09T09:06:47.018Z,10.74
2017-05-09T09:09:13.409Z,11.02
2017-05-09T09:11:39.783Z,11.03
2017-05-09T09:14:06.176Z,11.16
2017-05-09T09:16:32.545Z,11.27
2017-05-09T09:19:00.554Z,11.45
2017-05-09T09:21:27.268Z,11.82
2017-05-09T09:23:53.640Z,11.76
2017-05-09T09:26:20.026Z,12.46
2017-05-09T09:28:46.387Z,12.50
2017-05-09T09:31:12.749Z,12.81
2017-05-09T09:33:39.082Z,12.78
2017-05-09T09:36:06.435Z,12.72
2017-05-09T09:38:32.793Z,13.01
2017-05-09T09:40:59.130Z,13.30
2017-05-09T09:43:25.505Z,13.58
2017-05-09T09:45:51.916Z,13.11
2017-05-09T09:48:19.710Z,13.58
2017-05-09T09:50:46.044Z,14.08
2017-05-09T09:53:12.452Z,13.10
2017-05-09T09:55:38.824Z,12.56
2017-05-09T09:58:05.235Z,14.15
2017-05-09T10:00:31.613Z,13.06
2017-05-09T10:02:58.015Z,13.65
2017-05-09T10:05:24.352Z,13.77
2017-05-09T10:07:50.752Z,14.27
2017-05-09T10:10:17.143Z,14.03
2017-05-09T10:12:43.462Z,14.01
2017-05-09T10:15:09.802Z,14.08
2017-05-09T10:17:36.127Z,14.21
2017-05-09T10:20:02.509Z,14.34
2017-05-09T10:22:28.885Z,14.87
2017-05-09T10:24:55.308Z,14.57
2017-05-09T10:27:21.637Z,14.91
2017-05-09T10:29:48.074Z,14.78
2017-05-09T10:32:14.419Z,15.24
2017-05-09T10:34:40.749Z,15.22
2017-05-09T10:37:07.085Z,15.02
2017-05-09T10:39:33.426Z,14.10
2017-05-09T10:41:59.777Z,13.63
2017-05-09T10:44:26.111Z,13.35
2017-05-09T10:46:52.477Z,13.84
2017-05-09T10:49:18.854Z,13.93
2017-05-09T10:51:45.232Z,13.84
2017-05-09T10:54:11.572Z,13.88
2017-05-09T10:56:37.962Z,14.25
2017-05-09T10:59:04.324Z,15.12
2017-05-09T11:01:30.666Z,15.26
2017-05-09T11:03:56.982Z,15.04
2017-05-09T11:06:23.358Z,15.25
2017-05-09T11:08:49.694Z,15.49
2017-05-09T11:11:16.052Z,15.40
2017-05-09T11:13:42.424Z,15.34
2017-05-09T11:16:08.767Z,14.27
2017-05-09T11:18:35.107Z,13.89
2017-05-09T11:21:01.482Z,14.98
2017-05-09T11:23:27.826Z,14.26
2017-05-09T11:25:54.193Z,14.82
2017-05-09T11:28:20.532Z,15.20
2017-05-09T11:30:46.898Z,14.95
2017-05-09T11:33:13.259Z,13.83
2017-05-09T11:35:39.625Z,14.42
2017-05-09T11:38:06.009Z,13.68
2017-05-09T11:40:32.314Z,14.30
2017-05-09T11:42:58.648Z,14.24
2017-05-09T11:45:25.189Z,14.62
2017-05-09T11:47:51.633Z,14.89
2017-05-09T11:50:17.976Z,14.71
2017-05-09T11:52:44.345Z,15.54
2017-05-09T11:55:10.707Z,15.72
2017-05-09T11:57:37.072Z,14.87
2017-05-09T12:00:03.472Z,15.43
2017-05-09T12:02:30.806Z,15.09
2017-05-09T12:04:57.155Z,15.41
2017-05-09T12:07:23.560Z,15.08
2017-05-09T12:09:49.933Z,15.04
2017-05-09T12:12:16.239Z,14.45
2017-05-09T12:14:43.531Z,14.36
2017-05-09T12:17:09.865Z,13.77
2017-05-09T12:19:36.443Z,14.03
2017-05-09T12:22:02.867Z,14.35
2017-05-09T12:24:29.249Z,14.82
2017-05-09T12:26:55.679Z,14.55
2017-05-09T12:29:22.045Z,15.59
2017-05-09T12:31:48.416Z,15.68
2017-05-09T12:34:15.335Z,15.37
2017-05-09T12:36:41.675Z,15.03
2017-05-09T12:39:08.959Z,15.27
2017-05-09T12:41:35.652Z,15.27
2017-05-09T12:44:02.101Z,15.83
2017-05-09T12:46:28.495Z,15.31
2017-05-09T12:48:55.795Z,15.29
2017-05-09T12:51:22.154Z,15.07
2017-05-09T12:53:49.024Z,15.11
2017-05-09T12:56:15.948Z,15.11
2017-05-09T12:58:43.057Z,15.14
2017-05-09T13:01:09.796Z,14.81
2017-05-09T13:03:36.454Z,15.07
2017-05-09T13:06:02.840Z,14.50
2017-05-09T13:08:29.195Z,14.79
2017-05-09T13:10:55.502Z,14.81
2017-05-09T13:13:21.838Z,14.59
2017-05-09T13:15:48.169Z,14.34
2017-05-09T13:18:14.718Z,14.64
2017-05-09T13:20:41.679Z,14.52
2017-05-09T13:23:09.185Z,14.88
2017-05-09T13:25:35.796Z,14.29
2017-05-09T13:28:02.129Z,15.00
2017-05-09T13:30:28.433Z,14.81
2017-05-09T13:32:54.771Z,15.66
2017-05-09T13:35:21.109Z,15.42
2017-05-09T13:37:47.456Z,15.01
2017-05-09T13:40:14.633Z,15.03
2017-05-09T13:42:41.000Z,16.00
2017-05-09T13:45:07.375Z,15.91
2017-05-09T13:47:33.729Z,15.25
2017-05-09T13:50:00.818Z,15.49
2017-05-09T13:52:27.198Z,15.12
2017-05-09T13:54:53.645Z,15.24
2017-05-09T13:57:19.963Z,14.87
2017-05-09T13:59:46.828Z,14.98
2017-05-09T14:02:13.144Z,14.70
2017-05-09T14:04:39.474Z,14.92
2017-05-09T14:07:11.051Z,14.46
2017-05-09T14:09:37.371Z,14.98
2017-05-09T14:12:04.386Z,15.03
2017-05-09T14:14:30.758Z,15.80
2017-05-09T14:16:57.086Z,15.79
2017-05-09T14:19:23.477Z,15.93
2017-05-09T14:21:49.810Z,15.75
2017-05-09T14:24:16.162Z,15.70
2017-05-09T14:26:43.592Z,15.70
2017-05-09T14:29:09.995Z,15.55
2017-05-09T14:31:36.348Z,15.52
2017-05-09T14:34:02.710Z,16.21
2017-05-09T14:36:29.055Z,16.52
2017-05-09T14:38:55.913Z,16.81
2017-05-09T14:41:22.282Z,16.97
2017-05-09T14:43:52.735Z,16.18
2017-05-09T14:46:19.182Z,16.16
2017-05-09T14:48:45.542Z,15.75
2017-05-09T14:51:11.913Z,15.18
2017-05-09T14:53:38.278Z,15.06
2017-05-09T14:56:04.607Z,15.63
2017-05-09T14:58:30.940Z,15.36
2017-05-09T15:00:57.255Z,14.77
2017-05-09T15:03:23.598Z,14.89
2017-05-09T15:05:50.527Z,14.94
2017-05-09T15:08:18.024Z,15.16
2017-05-09T15:10:44.324Z,15.21
2017-05-09T15:13:10.673Z,15.24
2017-05-09T15:15:36.998Z,14.94
2017-05-09T15:18:03.357Z,14.70
2017-05-09T15:20:29.709Z,14.90
2017-05-09T15:22:56.104Z,15.27
2017-05-09T15:25:27.606Z,14.91
2017-05-09T15:27:53.969Z,14.44
2017-05-09T15:30:21.739Z,14.69
2017-05-09T15:32:48.069Z,14.45
2017-05-09T15:35:14.514Z,14.40
2017-05-09T15:37:40.929Z,14.26
2017-05-09T15:40:07.322Z,14.47
2017-05-09T15:42:33.710Z,14.93
2017-05-09T15:45:00.142Z,14.80
2017-05-09T15:47:26.571Z,14.76
2017-05-09T15:49:53.078Z,14.70
2017-05-09T15:52:20.377Z,14.85
2017-05-09T15:54:46.819Z,14.93
2017-05-09T15:57:13.206Z,15.23
2017-05-09T15:59:39.585Z,15.29
2017-05-09T16:02:05.970Z,14.95
2017-05-09T16:04:32.336Z,14.37
2017-05-09T16:06:58.727Z,14.86
2017-05-09T16:09:25.079Z,14.65
2017-05-09T16:11:51.424Z,14.88
2017-05-09T16:14:17.771Z,14.52
2017-05-09T16:16:44.119Z,14.61
2017-05-09T16:19:10.487Z,14.72
2017-05-09T16:21:36.851Z,14.79
2017-05-09T16:24:03.175Z,14.45
2017-05-09T16:26:29.997Z,14.74
2017-05-09T16:28:56.563Z,14.37
2017-05-09T16:31:22.916Z,14.37
2017-05-09T16:33:49.262Z,14.57
2017-05-09T16:36:17.500Z,14.30
2017-05-09T16:38:43.833Z,14.25
2017-05-09T16:41:10.193Z,14.06
2017-05-09T16:43:36.517Z,14.36
2017-05-09T16:46:02.850Z,14.77
2017-05-09T16:48:29.206Z,14.85
2017-05-09T16:50:55.563Z,15.17
2017-05-09T16:53:21.958Z,14.71
2017-05-09T16:55:48.386Z,15.30
2017-05-09T16:58:14.739Z,15.37
2017-05-09T17:00:41.505Z,15.13
2017-05-09T17:03:07.919Z,14.57
2017-05-09T17:05:34.284Z,14.54
2017-05-09T17:08:00.741Z,14.35
2017-05-09T17:10:27.105Z,14.82
2017-05-09T17:12:53.504Z,14.83
2017-05-09T17:15:19.879Z,14.57
2017-05-09T17:17:46.277Z,14.39
2017-05-09T17:20:15.385Z,14.54
2017-05-09T17:22:41.751Z,14.45
2017-05-09T17:25:08.108Z,14.77
2017-05-09T17:27:34.481Z,14.54
2017-05-09T17:30:00.937Z,14.59
2017-05-09T17:32:27.293Z,14.70
2017-05-09T17:34:53.648Z,14.35
2017-05-09T17:37:20.042Z,14.38
2017-05-09T17:39:46.384Z,14.46
2017-05-09T17:42:12.745Z,14.21
2017-05-09T17:44:39.137Z,14.37
2017-05-09T17:49:39.209Z,13.95
2017-05-09T17:52:05.592Z,14.04
2017-05-09T17:54:31.973Z,13.94
2017-05-09T17:56:58.404Z,14.18
2017-05-09T17:59:24.756Z,13.84
2017-05-09T18:01:51.111Z,13.65
2017-05-09T18:04:17.482Z,13.66
2017-05-09T18:06:43.840Z,13.75
2017-05-09T18:09:10.223Z,13.55
2017-05-09T18:11:36.589Z,13.29
2017-05-09T18:14:02.943Z,13.01
2017-05-09T18:16:29.353Z,13.19
2017-05-09T18:18:55.769Z,13.02
2017-05-09T18:21:22.194Z,13.09
2017-05-09T18:23:49.659Z,12.79
2017-05-09T18:26:16.058Z,12.81
2017-05-09T18:28:42.474Z,12.64
2017-05-09T18:31:08.915Z,12.83
2017-05-09T18:33:35.374Z,12.75
2017-05-09T18:36:01.871Z,12.58
2017-05-09T18:38:29.237Z,12.32
2017-05-09T18:40:55.992Z,12.08
2017-05-09T18:43:23.592Z,12.00
2017-05-09T18:46:05.108Z,11.90
2017-05-09T18:48:31.630Z,11.88
2017-05-09T18:51:06.801Z,12.01
2017-05-09T18:53:38.326Z,11.78
2017-05-09T18:58:42.871Z,11.42
2017-05-09T19:01:12.745Z,10.97
2017-05-09T19:06:43.742Z,11.28
2017-05-09T19:09:11.775Z,10.82
2017-05-09T19:11:39.664Z,10.70
2017-05-09T19:14:08.374Z,10.64
2017-05-09T19:16:35.799Z,10.41
2017-05-09T19:19:02.632Z,10.33
2017-05-09T19:21:29.024Z,10.93
2017-05-09T19:23:56.733Z,11.56
2017-05-09T19:26:23.680Z,11.86
2017-05-09T19:28:50.810Z,11.04
2017-05-09T19:31:18.464Z,10.69
2017-05-09T19:33:46.481Z,10.88
2017-05-09T19:36:13.640Z,11.18
2017-05-09T19:38:41.090Z,11.67
2017-05-09T19:41:07.711Z,10.68
2017-05-09T19:43:34.228Z,10.89
2017-05-09T19:46:01.881Z,11.45
2017-05-09T19:48:28.594Z,11.12
2017-05-09T19:50:56.321Z,11.06
2017-05-09T19:53:23.627Z,10.56
2017-05-09T19:55:51.455Z,11.15
2017-05-09T19:58:18.434Z,10.86
2017-05-09T20:00:45.374Z,11.43
2017-05-09T20:03:11.762Z,11.23
2017-05-09T20:05:38.148Z,11.33
2017-05-09T20:08:04.617Z,11.20
2017-05-09T20:10:31.016Z,11.29
2017-05-09T20:12:57.398Z,11.36
2017-05-09T20:15:24.225Z,11.34
2017-05-09T20:17:50.706Z,10.61
2017-05-09T20:20:17.044Z,9.13
2017-05-09T20:22:43.403Z,9.12
2017-05-09T20:25:09.777Z,8.91
2017-05-09T20:27:36.104Z,8.97
2017-05-09T20:30:02.515Z,8.61
2017-05-09T20:32:28.967Z,9.43
2017-05-09T20:34:55.367Z,9.48
2017-05-09T20:37:21.973Z,9.25
2017-05-09T20:39:48.504Z,8.49
2017-05-09T20:42:14.942Z,9.71
2017-05-09T20:44:41.321Z,9.35
2017-05-09T20:47:07.808Z,9.38
2017-05-09T20:49:34.844Z,9.44
2017-05-09T20:52:03.081Z,8.84
2017-05-09T20:54:32.760Z,9.31
2017-05-09T20:56:59.121Z,9.23
2017-05-09T20:59:25.471Z,9.32
2017-05-09T21:01:51.849Z,9.97
2017-05-09T21:04:18.270Z,10.30
2017-05-09T21:06:44.658Z,10.28
2017-05-09T21:09:11.110Z,9.06
2017-05-09T21:11:37.858Z,8.25
2017-05-09T21:14:04.278Z,8.98
2017-05-09T21:16:30.630Z,9.24
2017-05-09T21:18:56.983Z,8.88
2017-05-09T21:21:23.481Z,7.76
2017-05-09T21:23:49.964Z,8.52
2017-05-09T21:26:16.330Z,9.14
2017-05-09T21:28:42.704Z,8.13
2017-05-09T21:31:09.023Z,7.76
2017-05-09T21:33:35.375Z,7.47
2017-05-09T21:36:01.708Z,8.58
2017-05-09T21:38:28.077Z,9.04
2017-05-09T21:40:54.437Z,9.47
2017-05-09T21:43:20.819Z,8.16
2017-05-09T21:45:47.160Z,7.08
2017-05-09T21:48:13.491Z,7.03
2017-05-09T21:50:39.829Z,7.77
2017-05-09T21:53:06.146Z,8.02
2017-05-09T21:55:32.539Z,7.03
2017-05-09T21:57:58.912Z,7.98
2017-05-09T22:00:25.255Z,8.96
2017-05-09T22:05:25.176Z,6.91
2017-05-09T22:07:52.312Z,6.40
2017-05-09T22:10:18.777Z,6.52
2017-05-09T22:12:45.582Z,6.76
2017-05-09T22:15:11.945Z,7.18
2017-05-09T22:17:38.430Z,6.73
2017-05-09T22:20:04.842Z,7.05
2017-05-09T22:22:31.262Z,7.98
2017-05-09T22:24:57.644Z,8.13
2017-05-09T22:27:24.089Z,8.04
2017-05-09T22:29:50.562Z,8.40
2017-05-09T22:32:17.109Z,8.21
2017-05-09T22:34:43.505Z,7.55
2017-05-09T22:37:09.887Z,7.25
2017-05-09T22:39:36.244Z,7.45
2017-05-09T22:42:02.755Z,6.23
2017-05-09T22:44:29.195Z,6.21
2017-05-09T22:46:55.535Z,6.08
2017-05-09T22:49:21.924Z,7.12
2017-05-09T22:51:48.256Z,6.73
2017-05-09T22:54:14.692Z,6.38
2017-05-09T22:56:41.055Z,6.23
2017-05-09T22:59:07.422Z,6.24
2017-05-09T23:04:11.827Z,6.30
2017-05-09T23:06:38.144Z,7.12
2017-05-09T23:09:04.512Z,7.18
2017-05-09T23:11:30.918Z,7.47
2017-05-09T23:13:58.873Z,7.19
2017-05-09T23:16:25.389Z,6.59
2017-05-09T23:21:31.569Z,5.62
2017-05-09T23:23:57.910Z,6.70
2017-05-09T23:26:25.047Z,6.83
2017-05-09T23:28:51.415Z,6.55
2017-05-09T23:31:17.808Z,5.80
2017-05-09T23:33:44.180Z,5.54
2017-05-09T23:36:27.995Z,6.04
2017-05-09T23:38:54.502Z,6.80
2017-05-09T23:41:20.951Z,7.30
2017-05-09T23:43:47.408Z,6.18
2017-05-09T23:46:13.785Z,6.00
2017-05-09T23:48:57.378Z,5.62
2017-05-09T23:54:03.210Z,6.62
2017-05-09T23:56:29.594Z,6.99
2017-05-09T23:58:55.944Z,5.58
